Time;durP1;ratioP1;P1;durP2;ratioP2;P2;SDS_P1;SDS_P2;PMS_P1;PMS_P2;Temp;Humidity;BMP_temperature;BMP_pressure;BME280_temperature;BME280_humidity;BME280_pressure;Samples;Min_cycle;Max_cycle;Signal;HPM_P1;HPM_P2
2023/02/04 00:00:12;;;;;;;0.70;0.57;;;4.10;99.90;;;;;;5016961;28;20220;-50
2023/02/04 00:02:39;;;;;;;0.47;0.40;;;4.10;99.90;;;;;;5018510;28;20617;-53
2023/02/04 00:05:07;;;;;;;1.80;0.90;;;4.10;99.90;;;;;;5009198;28;20946;-53
2023/02/04 00:07:34;;;;;;;2.40;0.80;;;4.10;99.90;;;;;;5019638;28;20392;-50
2023/02/04 00:10:02;;;;;;;4.43;0.80;;;4.10;99.90;;;;;;4995187;28;20208;-53
2023/02/04 00:12:29;;;;;;;0.60;0.60;;;4.10;99.90;;;;;;5007451;28;20196;-52
2023/02/04 00:14:56;;;;;;;0.90;0.63;;;4.10;99.90;;;;;;5017893;28;20280;-54
2023/02/04 00:17:24;;;;;;;0.80;0.60;;;4.10;99.90;;;;;;5017132;28;21034;-52
2023/02/04 00:19:51;;;;;;;0.47;0.47;;;4.10;99.90;;;;;;5007424;28;20566;-53
2023/02/04 00:22:19;;;;;;;3.63;0.97;;;4.10;99.90;;;;;;5017217;28;20719;-53
2023/02/04 00:24:48;;;;;;;1.37;0.80;;;4.10;99.90;;;;;;5000970;28;20301;-55
2023/02/04 00:27:15;;;;;;;1.63;0.70;;;4.10;99.90;;;;;;5017272;28;20569;-55
2023/02/04 00:29:43;;;;;;;2.70;0.80;;;4.00;99.90;;;;;;5010088;28;20253;-50
2023/02/04 00:32:09;;;;;;;1.50;0.50;;;4.00;99.90;;;;;;5019391;28;20201;-54
2023/02/04 00:35:00;;;;;;;1.60;0.87;;;4.00;99.90;;;;;;5022003;28;20227;-50
2023/02/04 00:37:27;;;;;;;4.10;1.07;;;3.90;99.90;;;;;;5015222;28;20249;-54
2023/02/04 00:39:54;;;;;;;1.33;0.60;;;3.90;99.90;;;;;;5019700;28;20212;-50
2023/02/04 00:42:20;;;;;;;1.67;0.70;;;3.80;99.90;;;;;;5011661;28;20573;-53
2023/02/04 00:44:47;;;;;;;1.73;0.93;;;3.80;99.90;;;;;;5012629;28;20227;-52
2023/02/04 00:47:14;;;;;;;3.20;0.53;;;3.70;99.90;;;;;;5020590;28;20196;-54
2023/02/04 00:49:41;;;;;;;1.13;0.70;;;3.70;99.90;;;;;;5020412;28;20475;-54
2023/02/04 00:52:09;;;;;;;0.77;0.77;;;3.70;99.90;;;;;;5010678;27;20211;-53
2023/02/04 00:54:36;;;;;;;1.17;0.60;;;3.60;99.90;;;;;;5016732;28;20211;-52
2023/02/04 00:57:03;;;;;;;4.27;0.80;;;3.60;99.90;;;;;;5013314;27;20676;-50
2023/02/04 00:59:30;;;;;;;0.60;0.60;;;3.60;99.90;;;;;;5012192;28;20888;-54
2023/02/04 01:01:57;;;;;;;2.27;0.87;;;3.50;99.90;;;;;;5021332;28;20196;-53
2023/02/04 01:04:24;;;;;;;1.87;0.93;;;3.40;99.90;;;;;;5018067;28;20236;-53
2023/02/04 01:06:51;;;;;;;1.30;0.80;;;3.40;99.90;;;;;;5010120;27;20210;-51
2023/02/04 01:09:19;;;;;;;0.97;0.70;;;3.40;99.90;;;;;;5020018;28;20215;-54
2023/02/04 01:11:46;;;;;;;0.90;0.70;;;3.40;99.90;;;;;;5014215;28;20208;-53
2023/02/04 01:14:13;;;;;;;1.17;0.70;;;3.40;99.90;;;;;;5018685;28;20216;-54
2023/02/04 01:16:40;;;;;;;1.20;0.77;;;3.30;99.90;;;;;;5014587;28;20278;-51
2023/02/04 01:19:07;;;;;;;0.97;0.80;;;3.30;99.90;;;;;;5022211;28;20196;-52
2023/02/04 01:21:34;;;;;;;0.77;0.77;;;3.30;99.90;;;;;;5017403;28;20896;-50
2023/02/04 01:24:01;;;;;;;1.93;0.90;;;3.30;99.90;;;;;;5008269;27;20204;-51
2023/02/04 01:26:30;;;;;;;0.80;0.73;;;3.20;99.90;;;;;;5012468;28;20223;-52
2023/02/04 01:28:57;;;;;;;3.40;0.80;;;3.20;99.90;;;;;;5015762;28;20226;-51
2023/02/04 01:31:24;;;;;;;1.33;0.90;;;3.20;99.90;;;;;;5012154;28;20288;-51
2023/02/04 01:33:51;;;;;;;2.77;1.00;;;3.20;99.90;;;;;;5021278;28;20192;-53
2023/02/04 01:36:20;;;;;;;2.00;0.80;;;3.20;99.90;;;;;;5018801;28;20231;-52
2023/02/04 01:38:47;;;;;;;0.80;0.80;;;3.20;99.90;;;;;;5009344;27;20897;-54
2023/02/04 01:41:14;;;;;;;2.00;0.80;;;3.10;99.90;;;;;;5021065;28;20220;-53
2023/02/04 01:43:43;;;;;;;2.30;0.90;;;3.10;99.90;;;;;;5010840;28;20918;-55
2023/02/04 01:46:12;;;;;;;3.30;0.90;;;3.10;99.90;;;;;;5013120;28;20222;-51
2023/02/04 01:48:39;;;;;;;2.87;0.80;;;3.10;99.90;;;;;;5018826;28;20963;-53
2023/02/04 01:51:09;;;;;;;1.60;1.03;;;3.10;99.90;;;;;;5021874;28;20199;-55
2023/02/04 01:53:38;;;;;;;2.27;0.70;;;3.00;99.90;;;;;;5015388;27;20212;-52
2023/02/04 01:56:15;;;;;;;1.27;0.73;;;3.00;99.90;;;;;;5021680;28;20650;-51
2023/02/04 01:59:12;;;;;;;1.33;1.00;;;3.00;99.90;;;;;;5004811;28;20246;-54
2023/02/04 02:01:41;;;;;;;4.00;1.00;;;3.00;99.90;;;;;;5011562;28;20241;-51
2023/02/04 02:04:09;;;;;;;2.70;0.90;;;3.00;99.90;;;;;;5021217;28;20200;-53
2023/02/04 02:06:38;;;;;;;2.03;0.67;;;3.00;99.90;;;;;;5018314;28;20299;-53
2023/02/04 02:09:05;;;;;;;1.10;1.03;;;3.00;99.90;;;;;;5019815;28;20212;-50
2023/02/04 02:11:33;;;;;;;0.80;0.70;;;3.10;99.90;;;;;;5002991;27;20931;-54
2023/02/04 02:14:01;;;;;;;1.80;0.93;;;3.00;99.90;;;;;;5012135;28;20205;-51
2023/02/04 02:16:30;;;;;;;1.77;0.87;;;3.00;99.90;;;;;;5010699;28;20224;-54
2023/02/04 02:18:58;;;;;;;2.03;1.07;;;3.00;99.90;;;;;;5020234;28;20235;-51
2023/02/04 02:21:33;;;;;;;1.50;0.90;;;3.00;99.90;;;;;;5015275;28;20280;-53
2023/02/04 02:24:24;;;;;;;1.60;0.90;;;3.00;99.90;;;;;;5016200;28;20275;-55
2023/02/04 02:26:54;;;;;;;1.23;1.13;;;3.00;99.90;;;;;;5019689;27;20246;-53
2023/02/04 02:29:21;;;;;;;1.57;1.10;;;3.00;99.90;;;;;;5006887;28;20204;-55
2023/02/04 02:31:49;;;;;;;4.90;1.07;;;3.00;99.90;;;;;;5006399;28;20760;-54
2023/02/04 02:34:16;;;;;;;0.70;0.70;;;2.90;99.90;;;;;;5018954;28;20208;-54
2023/02/04 02:36:43;;;;;;;3.20;1.13;;;2.90;99.90;;;;;;5012834;28;20246;-51
2023/02/04 02:39:12;;;;;;;3.03;1.30;;;2.90;99.90;;;;;;5029918;28;20204;-53
2023/02/04 02:41:38;;;;;;;1.80;1.03;;;2.90;99.90;;;;;;5008620;27;20212;-52
2023/02/04 02:44:07;;;;;;;1.30;1.13;;;2.80;99.90;;;;;;5009385;28;20203;-54
2023/02/04 02:46:33;;;;;;;1.10;1.00;;;2.80;99.90;;;;;;5010173;28;20197;-50
2023/02/04 02:49:00;;;;;;;2.67;1.50;;;2.70;99.90;;;;;;5021192;28;20580;-50
2023/02/04 02:51:28;;;;;;;2.80;1.10;;;2.70;99.90;;;;;;5017292;28;20207;-51
2023/02/04 02:53:54;;;;;;;2.03;1.07;;;2.70;99.90;;;;;;5019706;28;20204;-54
2023/02/04 02:56:24;;;;;;;1.53;1.23;;;2.60;99.90;;;;;;5009403;27;20228;-52
2023/02/04 02:58:52;;;;;;;2.80;1.03;;;2.60;99.90;;;;;;5017623;27;20204;-52
2023/02/04 03:01:19;;;;;;;1.13;1.03;;;2.50;99.90;;;;;;5008211;28;20826;-53
2023/02/04 03:03:49;;;;;;;3.00;1.27;;;2.50;99.90;;;;;;5013324;28;20211;-53
2023/02/04 03:06:20;;;;;;;3.03;1.33;;;2.50;99.90;;;;;;5017741;28;20308;-51
2023/02/04 03:08:54;;;;;;;1.93;0.93;;;2.40;99.90;;;;;;5019701;28;20204;-50
2023/02/04 03:11:28;;;;;;;2.40;1.03;;;2.40;99.90;;;;;;5010549;27;20659;-51
2023/02/04 03:14:14;;;;;;;1.53;1.00;;;2.30;99.90;;;;;;5018592;28;20211;-53
2023/02/04 03:16:43;;;;;;;1.67;1.23;;;2.20;99.90;;;;;;5006375;28;20392;-52
2023/02/04 03:19:10;;;;;;;1.93;1.27;;;2.10;99.90;;;;;;5013734;28;20212;-53
2023/02/04 03:21:37;;;;;;;2.13;1.27;;;2.10;99.90;;;;;;5020086;27;20338;-51
2023/02/04 03:24:05;;;;;;;1.13;1.00;;;2.10;99.90;;;;;;5022213;27;20218;-51
2023/02/04 03:26:34;;;;;;;1.50;0.93;;;2.00;99.90;;;;;;5007129;27;20204;-53
2023/02/04 03:29:01;;;;;;;1.67;1.00;;;2.00;99.90;;;;;;5020258;28;20569;-53
2023/02/04 03:31:29;;;;;;;2.73;1.40;;;2.00;99.90;;;;;;5011070;28;20204;-51
2023/02/04 03:33:55;;;;;;;1.33;1.07;;;2.00;99.90;;;;;;5012284;28;20204;-54
2023/02/04 03:36:22;;;;;;;3.43;1.40;;;2.00;99.90;;;;;;5017856;28;20220;-53
2023/02/04 03:38:51;;;;;;;1.90;1.17;;;1.90;99.90;;;;;;5019034;28;20226;-54
2023/02/04 03:41:18;;;;;;;1.23;1.10;;;1.90;99.90;;;;;;5018789;28;20208;-53
2023/02/04 03:43:46;;;;;;;1.27;0.90;;;1.80;99.90;;;;;;5007551;28;20269;-53
2023/02/04 03:46:13;;;;;;;2.70;1.40;;;1.80;99.90;;;;;;5019298;28;20307;-51
2023/02/04 03:48:40;;;;;;;2.40;1.67;;;1.80;99.90;;;;;;4994800;28;20687;-51
2023/02/04 03:51:07;;;;;;;3.90;1.50;;;1.90;99.90;;;;;;5020220;28;20664;-49
2023/02/04 03:53:33;;;;;;;2.00;1.40;;;1.90;99.90;;;;;;5035789;28;20192;-53
2023/02/04 03:56:00;;;;;;;2.93;1.40;;;2.00;99.90;;;;;;5019941;28;20216;-51
2023/02/04 03:58:26;;;;;;;3.30;1.47;;;2.00;99.90;;;;;;5005732;28;20211;-51
2023/02/04 04:00:54;;;;;;;3.33;2.13;;;2.00;99.90;;;;;;5019639;28;20235;-51
2023/02/04 04:03:21;;;;;;;3.63;1.70;;;2.00;99.90;;;;;;5008887;28;20211;-53
2023/02/04 04:05:48;;;;;;;1.23;1.13;;;2.10;99.90;;;;;;5011743;28;20212;-53
2023/02/04 04:08:15;;;;;;;4.20;1.30;;;2.10;99.90;;;;;;5018387;28;20282;-54
2023/02/04 04:10:42;;;;;;;1.97;1.77;;;2.10;99.90;;;;;;5017378;28;20301;-50
2023/02/04 04:13:09;;;;;;;2.07;1.40;;;2.10;99.90;;;;;;5019603;28;20207;-51
2023/02/04 04:15:35;;;;;;;1.63;1.43;;;2.10;99.90;;;;;;5007845;27;20277;-51
2023/02/04 04:18:04;;;;;;;1.80;1.17;;;2.10;99.90;;;;;;5012919;28;20573;-50
2023/02/04 04:20:30;;;;;;;1.80;1.70;;;2.10;99.90;;;;;;5011674;28;20237;-50
2023/02/04 04:22:57;;;;;;;5.50;2.13;;;2.10;99.90;;;;;;5022318;28;20211;-51
2023/02/04 04:25:24;;;;;;;3.00;1.70;;;2.10;99.90;;;;;;5019677;28;20243;-53
2023/02/04 04:27:52;;;;;;;3.80;1.70;;;2.10;99.90;;;;;;5022919;28;20552;-49
2023/02/04 04:30:19;;;;;;;3.27;1.90;;;2.10;99.90;;;;;;5010858;27;20207;-51
2023/02/04 04:32:46;;;;;;;4.60;1.80;;;2.10;99.90;;;;;;5017254;28;20200;-50
2023/02/04 04:35:14;;;;;;;2.30;1.77;;;2.10;99.90;;;;;;5013838;28;20680;-53
2023/02/04 04:37:41;;;;;;;3.10;1.70;;;2.10;99.90;;;;;;5015323;28;20212;-51
2023/02/04 04:40:11;;;;;;;2.33;1.90;;;2.10;99.90;;;;;;5021733;28;20729;-50
2023/02/04 04:42:38;;;;;;;2.27;1.77;;;2.10;99.90;;;;;;5019234;28;20331;-50
2023/02/04 04:45:08;;;;;;;4.33;1.73;;;2.10;99.90;;;;;;5012952;27;20227;-50
2023/02/04 04:47:35;;;;;;;1.90;1.77;;;2.10;99.90;;;;;;5018710;28;20195;-51
2023/02/04 04:50:01;;;;;;;3.23;1.53;;;2.10;99.90;;;;;;5012669;28;20204;-51
2023/02/04 04:52:29;;;;;;;2.77;1.53;;;2.10;99.90;;;;;;5011525;28;20211;-53
2023/02/04 04:54:56;;;;;;;3.37;1.77;;;2.10;99.90;;;;;;5021866;28;20737;-50
2023/02/04 04:57:22;;;;;;;1.70;1.50;;;2.10;99.90;;;;;;5020308;28;20200;-53
2023/02/04 04:59:49;;;;;;;2.17;1.47;;;2.20;99.90;;;;;;5022114;28;20583;-52
2023/02/04 05:02:16;;;;;;;1.93;1.80;;;2.20;99.90;;;;;;5010179;27;20232;-54
2023/02/04 05:04:43;;;;;;;2.23;1.43;;;2.20;99.90;;;;;;5019839;28;20208;-54
2023/02/04 05:07:10;;;;;;;2.70;1.90;;;2.20;99.90;;;;;;5004419;27;20197;-52
2023/02/04 05:09:38;;;;;;;1.50;1.40;;;2.20;99.90;;;;;;5013509;28;20192;-50
2023/02/04 05:12:05;;;;;;;3.77;1.80;;;2.20;99.90;;;;;;5022676;28;20308;-49
2023/02/04 05:14:32;;;;;;;1.87;1.37;;;2.30;99.90;;;;;;5018312;28;20224;-51
2023/02/04 05:16:59;;;;;;;3.27;1.80;;;2.30;99.90;;;;;;5011030;27;20206;-50
2023/02/04 05:19:26;;;;;;;1.70;1.60;;;2.30;99.90;;;;;;5018299;28;20197;-54
2023/02/04 05:21:53;;;;;;;1.77;1.60;;;2.30;99.90;;;;;;5021935;27;20240;-50
2023/02/04 05:24:20;;;;;;;1.97;1.80;;;2.40;99.90;;;;;;5008541;27;20676;-52
2023/02/04 05:26:48;;;;;;;1.70;1.60;;;2.40;99.90;;;;;;5020456;28;20202;-50
2023/02/04 05:29:15;;;;;;;2.03;1.77;;;2.40;99.90;;;;;;5020038;28;20695;-52
2023/02/04 05:31:42;;;;;;;2.07;1.63;;;2.40;99.90;;;;;;5009967;27;20279;-52
2023/02/04 05:34:09;;;;;;;4.37;2.50;;;2.40;99.90;;;;;;5021241;28;20699;-50
2023/02/04 05:36:36;;;;;;;2.20;2.00;;;2.30;99.90;;;;;;5011727;28;20319;-54
2023/02/04 05:39:03;;;;;;;2.30;1.80;;;2.30;99.90;;;;;;5010007;28;20209;-52
2023/02/04 05:41:30;;;;;;;3.77;1.70;;;2.30;99.90;;;;;;5010653;28;20222;-50
2023/02/04 05:43:58;;;;;;;3.43;1.60;;;2.30;99.90;;;;;;5021631;28;20211;-51
2023/02/04 05:46:25;;;;;;;2.13;1.93;;;2.30;99.90;;;;;;5018459;28;20216;-51
2023/02/04 05:48:52;;;;;;;1.63;1.40;;;2.30;99.90;;;;;;5010689;27;20204;-52
2023/02/04 05:51:19;;;;;;;2.67;1.77;;;2.30;99.90;;;;;;5016844;28;20252;-51
2023/02/04 05:53:49;;;;;;;5.20;1.57;;;2.20;99.90;;;;;;5011483;28;20311;-53
2023/02/04 05:56:16;;;;;;;3.03;1.70;;;2.20;99.90;;;;;;5013951;28;20231;-53
2023/02/04 05:58:43;;;;;;;3.60;1.67;;;2.10;99.90;;;;;;5019985;28;21030;-54
2023/02/04 06:01:11;;;;;;;1.77;1.63;;;2.00;99.90;;;;;;5021292;28;20249;-54
2023/02/04 06:03:38;;;;;;;3.13;1.47;;;2.00;99.90;;;;;;5008655;27;20208;-53
2023/02/04 06:06:06;;;;;;;1.37;1.10;;;2.00;99.90;;;;;;5021441;28;20266;-55
2023/02/04 06:08:32;;;;;;;1.57;1.47;;;1.90;99.90;;;;;;5009382;28;20896;-52
2023/02/04 06:10:59;;;;;;;2.57;1.80;;;1.80;99.90;;;;;;5003383;28;20200;-52
2023/02/04 06:13:25;;;;;;;2.00;1.30;;;1.80;99.90;;;;;;5017509;28;20188;-54
2023/02/04 06:15:52;;;;;;;2.43;1.67;;;1.80;99.90;;;;;;5021462;28;20220;-53
2023/02/04 06:18:20;;;;;;;5.10;1.70;;;1.80;99.90;;;;;;5013804;27;20308;-53
2023/02/04 06:21:09;;;;;;;3.73;1.50;;;1.70;99.90;;;;;;5017122;28;20256;-52
2023/02/04 06:23:36;;;;;;;1.60;1.40;;;1.70;99.90;;;;;;5013707;27;20228;-49
2023/02/04 06:26:03;;;;;;;3.27;1.70;;;1.60;99.90;;;;;;5009523;28;20558;-51
2023/02/04 06:28:30;;;;;;;1.50;1.40;;;1.60;99.90;;;;;;5009136;28;20204;-53
2023/02/04 06:30:56;;;;;;;2.27;1.53;;;1.50;99.90;;;;;;5021333;28;20202;-53
2023/02/04 06:33:24;;;;;;;3.23;1.80;;;1.40;99.90;;;;;;5010196;28;20192;-51
2023/02/04 06:35:51;;;;;;;1.70;1.60;;;1.40;99.90;;;;;;5009908;28;20289;-49
2023/02/04 06:38:19;;;;;;;1.37;1.27;;;1.40;99.90;;;;;;5010187;28;20223;-52
2023/02/04 06:40:48;;;;;;;1.50;1.40;;;1.30;99.90;;;;;;5003777;27;20208;-50
2023/02/04 06:43:15;;;;;;;1.97;1.50;;;1.30;99.90;;;;;;5008258;28;20280;-53
2023/02/04 06:45:41;;;;;;;2.50;1.40;;;1.30;99.90;;;;;;5020250;28;20228;-49
2023/02/04 06:48:11;;;;;;;3.27;1.50;;;1.30;99.90;;;;;;5018819;28;20554;-50
2023/02/04 06:50:39;;;;;;;2.00;1.87;;;1.20;99.90;;;;;;5007555;27;20205;-52
2023/02/04 06:53:05;;;;;;;4.23;2.13;;;1.20;99.90;;;;;;5006683;28;20204;-53
2023/02/04 06:55:32;;;;;;;3.60;1.90;;;1.10;99.90;;;;;;5010855;27;20223;-51
2023/02/04 06:57:59;;;;;;;2.00;1.80;;;1.20;99.90;;;;;;5008239;28;20212;-53
2023/02/04 07:00:26;;;;;;;7.27;2.00;;;1.20;99.90;;;;;;5012204;28;20199;-51
2023/02/04 07:02:53;;;;;;;2.07;1.57;;;1.20;99.90;;;;;;5019762;28;20212;-50
2023/02/04 07:05:20;;;;;;;2.43;1.90;;;1.20;99.90;;;;;;5004415;28;20239;-50
2023/02/04 07:07:48;;;;;;;2.83;1.70;;;1.20;99.90;;;;;;5008430;28;20257;-50
2023/02/04 07:10:16;;;;;;;4.23;1.70;;;1.20;99.90;;;;;;4997848;28;20665;-53
2023/02/04 07:12:42;;;;;;;2.00;1.70;;;1.20;99.90;;;;;;5009598;28;20271;-50
2023/02/04 07:15:10;;;;;;;1.93;1.70;;;1.10;99.90;;;;;;5011050;28;20909;-49
2023/02/04 07:17:37;;;;;;;3.87;1.93;;;1.10;99.90;;;;;;5020319;28;20196;-50
2023/02/04 07:20:04;;;;;;;2.60;2.33;;;1.10;99.90;;;;;;5011573;28;20282;-49
2023/02/04 07:22:31;;;;;;;3.60;2.10;;;1.10;99.90;;;;;;5008624;27;20230;-50
2023/02/04 07:24:59;;;;;;;2.37;2.10;;;1.10;99.90;;;;;;5001004;28;20219;-50
2023/02/04 07:27:27;;;;;;;2.70;2.40;;;1.10;99.90;;;;;;5020396;28;20200;-49
2023/02/04 07:29:54;;;;;;;2.50;2.17;;;1.10;99.90;;;;;;5000445;28;20216;-52
2023/02/04 07:32:21;;;;;;;3.47;2.47;;;1.10;99.90;;;;;;5019244;28;20218;-50
2023/02/04 07:34:48;;;;;;;2.83;2.30;;;1.10;99.90;;;;;;5010071;28;20219;-52
2023/02/04 07:37:15;;;;;;;3.03;2.73;;;1.10;99.90;;;;;;5009196;28;20201;-52
2023/02/04 07:39:44;;;;;;;2.60;2.40;;;1.20;99.90;;;;;;5002987;27;20211;-54
2023/02/04 07:42:13;;;;;;;3.80;2.37;;;1.20;99.90;;;;;;4999312;28;20217;-50
2023/02/04 07:44:45;;;;;;;3.53;2.50;;;1.20;99.90;;;;;;4998876;28;20255;-53
2023/02/04 07:47:12;;;;;;;3.70;2.33;;;1.30;99.90;;;;;;5013680;28;20373;-53
2023/02/04 07:49:40;;;;;;;3.57;2.40;;;1.30;99.90;;;;;;5012982;28;20209;-53
2023/02/04 07:52:06;;;;;;;3.30;2.27;;;1.30;99.90;;;;;;5004185;28;20771;-50
2023/02/04 07:54:33;;;;;;;4.20;2.67;;;1.40;99.90;;;;;;5008938;28;20303;-50
2023/02/04 07:56:59;;;;;;;3.43;2.90;;;1.40;99.90;;;;;;5004061;28;20208;-50
2023/02/04 07:59:27;;;;;;;3.33;2.73;;;1.40;99.90;;;;;;5010218;28;20686;-53
2023/02/04 08:01:54;;;;;;;4.17;2.43;;;1.50;99.90;;;;;;5007555;28;20707;-50
2023/02/04 08:04:21;;;;;;;3.93;3.20;;;1.50;99.90;;;;;;5011473;28;20215;-53
2023/02/04 08:06:48;;;;;;;3.30;2.70;;;1.50;99.90;;;;;;5016114;28;20249;-52
2023/02/04 08:09:15;;;;;;;4.10;3.30;;;1.60;99.90;;;;;;5008714;28;20200;-51
2023/02/04 08:11:44;;;;;;;5.90;3.80;;;1.60;99.90;;;;;;5007540;28;20273;-52
2023/02/04 08:14:11;;;;;;;5.47;3.40;;;1.60;99.90;;;;;;5010999;28;20211;-50
2023/02/04 08:16:39;;;;;;;6.97;4.57;;;1.60;99.90;;;;;;5011895;28;20208;-53
2023/02/04 08:19:06;;;;;;;9.40;6.00;;;1.60;99.90;;;;;;5017265;28;20237;-51
2023/02/04 08:21:33;;;;;;;9.33;7.83;;;1.70;99.90;;;;;;5018397;28;20204;-53
2023/02/04 08:24:00;;;;;;;7.30;5.70;;;1.70;99.90;;;;;;5008876;28;20323;-51
2023/02/04 08:26:26;;;;;;;8.20;5.77;;;1.80;99.90;;;;;;5000665;28;20220;-54
2023/02/04 08:28:53;;;;;;;6.93;4.30;;;1.80;99.90;;;;;;5006168;28;23658;-54
2023/02/04 08:31:20;;;;;;;4.63;3.63;;;1.90;99.90;;;;;;5008344;28;20689;-51
2023/02/04 08:33:48;;;;;;;9.50;3.87;;;2.00;99.90;;;;;;5015229;28;20200;-52
2023/02/04 08:36:15;;;;;;;2.73;2.40;;;2.10;99.90;;;;;;5018995;28;20228;-52
2023/02/04 08:38:43;;;;;;;3.70;2.37;;;2.20;99.90;;;;;;5015429;28;20196;-54
2023/02/04 08:41:10;;;;;;;2.93;2.53;;;2.20;99.90;;;;;;5005603;28;20928;-49
2023/02/04 08:43:37;;;;;;;2.83;2.07;;;2.20;99.90;;;;;;5006465;28;20211;-49
2023/02/04 08:46:04;;;;;;;2.97;2.17;;;2.30;99.90;;;;;;5013244;28;20603;-49
2023/02/04 08:48:31;;;;;;;5.67;2.63;;;2.40;99.90;;;;;;5008240;28;20549;-52
2023/02/04 08:51:00;;;;;;;2.83;1.90;;;2.50;99.90;;;;;;5018568;28;20268;-51
2023/02/04 08:53:26;;;;;;;1.57;1.47;;;2.60;99.90;;;;;;5015262;28;20699;-52
2023/02/04 08:55:53;;;;;;;1.90;1.70;;;2.70;99.90;;;;;;5006242;28;20243;-50
2023/02/04 08:58:20;;;;;;;2.53;2.10;;;2.80;99.90;;;;;;5017773;28;20608;-53
2023/02/04 09:00:46;;;;;;;2.47;1.70;;;3.00;99.90;;;;;;5005916;28;20228;-52
2023/02/04 09:03:14;;;;;;;1.60;1.10;;;3.20;99.90;;;;;;5014815;28;20224;-54
2023/02/04 09:05:40;;;;;;;1.53;1.30;;;3.20;99.90;;;;;;5019160;28;20216;-54
2023/02/04 09:08:09;;;;;;;2.53;1.03;;;3.30;99.90;;;;;;5022616;28;20232;-51
2023/02/04 09:10:35;;;;;;;0.97;0.77;;;3.20;99.90;;;;;;5007626;27;20410;-51
2023/02/04 09:13:02;;;;;;;2.73;1.10;;;3.20;99.90;;;;;;5022413;28;20192;-55
2023/02/04 09:15:29;;;;;;;3.63;1.10;;;3.20;99.90;;;;;;5013959;28;20220;-54
2023/02/04 09:18:03;;;;;;;1.50;1.30;;;3.30;99.90;;;;;;5021873;28;20208;-54
2023/02/04 09:20:30;;;;;;;1.53;1.23;;;3.40;99.90;;;;;;5011798;28;20230;-54
2023/02/04 09:22:58;;;;;;;1.03;1.00;;;3.40;99.90;;;;;;5020141;28;20224;-54
2023/02/04 09:25:26;;;;;;;2.87;1.20;;;3.40;99.90;;;;;;5012981;27;20232;-54
2023/02/04 09:27:53;;;;;;;1.80;1.40;;;3.40;99.90;;;;;;5018199;27;20222;-52
2023/02/04 09:30:19;;;;;;;2.67;1.07;;;3.40;99.90;;;;;;5021235;28;20208;-53
2023/02/04 09:33:10;;;;;;;1.43;1.33;;;3.50;99.90;;;;;;5014802;27;20324;-55
2023/02/04 09:35:37;;;;;;;0.57;0.57;;;3.50;99.90;;;;;;5011576;28;20223;-54
2023/02/04 09:38:05;;;;;;;1.43;1.00;;;3.60;99.90;;;;;;5021049;28;20290;-53
2023/02/04 09:40:36;;;;;;;1.13;0.90;;;3.60;99.90;;;;;;5018368;28;20200;-54
2023/02/04 09:43:05;;;;;;;2.00;1.10;;;3.80;99.90;;;;;;5032325;27;20227;-51
2023/02/04 09:45:34;;;;;;;1.10;1.00;;;3.90;99.90;;;;;;5012568;28;20224;-54
2023/02/04 09:48:24;;;;;;;2.37;1.00;;;3.80;99.90;;;;;;5006945;28;20629;-54
2023/02/04 09:50:53;;;;;;;2.40;1.20;;;3.80;99.90;;;;;;5018249;28;20196;-56
2023/02/04 09:53:22;;;;;;;2.13;1.20;;;3.90;99.90;;;;;;5020046;28;20603;-54
2023/02/04 09:55:51;;;;;;;5.40;1.50;;;3.90;99.90;;;;;;5019828;28;20302;-50
2023/02/04 09:58:20;;;;;;;2.33;1.40;;;4.00;99.90;;;;;;5011063;27;20211;-54
2023/02/04 10:00:58;;;;;;;2.07;1.00;;;4.20;99.90;;;;;;5020097;28;20219;-53
2023/02/04 10:03:26;;;;;;;3.37;1.27;;;4.50;99.90;;;;;;5014898;28;20212;-53
2023/02/04 10:05:52;;;;;;;1.33;1.10;;;4.70;99.90;;;;;;5012220;28;20223;-54
2023/02/04 10:08:24;;;;;;;2.03;1.00;;;4.80;99.90;;;;;;5020778;28;20204;-54
2023/02/04 10:10:52;;;;;;;1.37;1.00;;;4.70;99.90;;;;;;5020076;28;20210;-54
2023/02/04 10:13:21;;;;;;;1.37;0.70;;;4.60;99.90;;;;;;5015330;28;20290;-53
2023/02/04 10:15:50;;;;;;;2.50;0.87;;;4.60;99.90;;;;;;5015432;27;20280;-51
2023/02/04 10:18:23;;;;;;;0.60;0.60;;;4.60;99.90;;;;;;5013329;28;20220;-51
2023/02/04 10:20:50;;;;;;;1.67;0.73;;;4.60;99.90;;;;;;5010813;27;20197;-50
2023/02/04 10:23:17;;;;;;;1.20;1.00;;;4.60;99.90;;;;;;5020111;28;21004;-53
2023/02/04 10:25:44;;;;;;;2.70;1.30;;;4.60;99.90;;;;;;5018403;28;21028;-54
2023/02/04 10:28:12;;;;;;;3.90;0.90;;;4.60;99.90;;;;;;5021803;28;20200;-50
2023/02/04 10:30:42;;;;;;;1.83;0.90;;;4.60;99.90;;;;;;5008616;27;20271;-51
2023/02/04 10:33:14;;;;;;;2.70;0.80;;;4.70;99.90;;;;;;5021366;28;20208;-50
2023/02/04 10:35:46;;;;;;;1.17;0.87;;;4.80;99.90;;;;;;5010906;28;20223;-51
2023/02/04 10:38:13;;;;;;;2.90;0.83;;;4.90;99.90;;;;;;5017381;28;20280;-53
2023/02/04 10:40:39;;;;;;;1.87;0.80;;;5.00;99.90;;;;;;5017910;28;20195;-49
2023/02/04 10:43:14;;;;;;;1.70;0.77;;;5.00;99.90;;;;;;5021016;28;20212;-50
2023/02/04 10:45:46;;;;;;;4.60;0.90;;;5.00;99.90;;;;;;5009763;28;20298;-50
2023/02/04 10:48:16;;;;;;;2.20;0.80;;;4.90;99.90;;;;;;5019010;28;20238;-50
2023/02/04 10:50:43;;;;;;;1.83;0.90;;;5.00;99.90;;;;;;5011033;28;20208;-51
2023/02/04 10:55:58;;;;;;;1.03;0.93;;;5.20;99.90;;;;;;5019380;28;20216;-50
2023/02/04 10:58:30;;;;;;;0.90;0.70;;;5.20;99.90;;;;;;5018108;28;20323;-52
2023/02/04 11:00:57;;;;;;;1.00;0.90;;;5.10;99.90;;;;;;5011079;27;20207;-53
2023/02/04 11:03:26;;;;;;;1.53;0.93;;;5.00;99.90;;;;;;5018516;28;20729;-55
2023/02/04 11:05:55;;;;;;;0.70;0.70;;;5.00;99.90;;;;;;5012818;28;20774;-50
2023/02/04 11:08:25;;;;;;;1.80;0.80;;;5.10;99.90;;;;;;5018982;28;20685;-53
2023/02/04 11:10:56;;;;;;;2.90;0.80;;;5.10;99.90;;;;;;5019699;28;20699;-53
2023/02/04 11:13:25;;;;;;;0.97;0.70;;;5.10;99.90;;;;;;5018547;28;20597;-53
2023/02/04 11:16:10;;;;;;;1.07;0.70;;;5.10;99.90;;;;;;5009548;27;20227;-50
2023/02/04 11:18:49;;;;;;;1.97;0.67;;;5.20;99.90;;;;;;5017361;28;20196;-52
2023/02/04 11:21:23;;;;;;;0.90;0.80;;;5.30;99.90;;;;;;5006137;28;20214;-52
2023/02/04 11:23:51;;;;;;;0.70;0.60;;;5.40;99.90;;;;;;5015083;28;20214;-50
2023/02/04 11:26:21;;;;;;;0.93;0.93;;;5.30;99.90;;;;;;5005990;28;21034;-49
2023/02/04 11:29:10;;;;;;;1.33;1.13;;;5.40;99.90;;;;;;5017983;28;20204;-52
2023/02/04 11:31:58;;;;;;;1.10;0.57;;;5.30;99.90;;;;;;5021001;27;20216;-51
2023/02/04 11:34:28;;;;;;;1.30;1.10;;;5.30;99.90;;;;;;5016897;28;20245;-54
2023/02/04 11:37:38;;;;;;;1.67;0.90;;;5.30;99.90;;;;;;5005586;28;20911;-54
2023/02/04 11:40:33;;;;;;;1.07;1.00;;;5.30;99.90;;;;;;5010505;28;20204;-52
2023/02/04 11:43:03;;;;;;;1.07;0.70;;;5.30;99.90;;;;;;4977674;28;20589;-54
2023/02/04 11:45:33;;;;;;;0.87;0.83;;;5.20;99.90;;;;;;5010879;28;20232;-54
2023/02/04 11:48:03;;;;;;;1.90;1.17;;;5.20;99.90;;;;;;5010099;28;20196;-53
2023/02/04 11:50:31;;;;;;;0.93;0.83;;;5.30;99.90;;;;;;5027178;28;20675;-51
2023/02/04 11:53:00;;;;;;;2.50;1.10;;;5.30;99.90;;;;;;5010728;28;20216;-53
2023/02/04 11:55:29;;;;;;;0.90;0.90;;;5.40;99.90;;;;;;5013386;28;20686;-52
2023/02/04 11:57:56;;;;;;;1.87;0.70;;;5.40;99.90;;;;;;5009383;28;20721;-54
2023/02/04 12:00:25;;;;;;;1.73;0.50;;;5.40;99.90;;;;;;5009676;28;20202;-55
2023/02/04 12:02:59;;;;;;;1.87;0.67;;;5.40;99.90;;;;;;5028211;28;20277;-54
2023/02/04 12:05:40;;;;;;;1.10;0.70;;;5.50;99.90;;;;;;5011447;28;20223;-53
2023/02/04 12:08:14;;;;;;;2.37;0.67;;;5.60;99.90;;;;;;5003015;28;20228;-53
2023/02/04 12:10:49;;;;;;;0.80;0.70;;;5.60;99.90;;;;;;5015796;28;20192;-51
2023/02/04 12:13:18;;;;;;;1.20;0.83;;;5.60;99.90;;;;;;5016054;28;20195;-52
2023/02/04 12:15:54;;;;;;;0.50;0.50;;;5.50;99.90;;;;;;5011070;28;20715;-52
2023/02/04 12:18:21;;;;;;;0.57;0.50;;;5.60;99.90;;;;;;5004176;28;20207;-50
2023/02/04 12:20:49;;;;;;;0.90;0.50;;;5.40;99.90;;;;;;5016712;28;20282;-50
2023/02/04 12:23:16;;;;;;;1.80;0.60;;;5.40;99.90;;;;;;5032411;28;20224;-53
2023/02/04 12:25:43;;;;;;;1.73;0.73;;;5.50;99.90;;;;;;5019991;28;20702;-51
2023/02/04 12:28:10;;;;;;;3.10;0.60;;;5.50;99.90;;;;;;5027568;28;20231;-52
2023/02/04 12:30:36;;;;;;;1.77;0.70;;;5.50;99.90;;;;;;5012812;28;20212;-51
2023/02/04 12:33:03;;;;;;;3.73;0.70;;;5.50;99.90;;;;;;4999263;28;20703;-52
2023/02/04 12:35:30;;;;;;;3.37;0.70;;;5.50;99.90;;;;;;5010751;28;20467;-50
2023/02/04 12:37:58;;;;;;;1.13;0.70;;;5.50;99.90;;;;;;5016791;28;20241;-52
2023/02/04 12:40:28;;;;;;;0.50;0.50;;;5.50;99.90;;;;;;5014158;28;20257;-54
2023/02/04 12:42:55;;;;;;;0.80;0.77;;;5.40;99.90;;;;;;5019530;28;20203;-52
2023/02/04 12:45:22;;;;;;;1.70;0.60;;;5.40;99.90;;;;;;5013864;28;20220;-52
2023/02/04 12:47:49;;;;;;;1.20;0.80;;;5.40;99.90;;;;;;5011536;28;20215;-52
2023/02/04 12:50:21;;;;;;;1.93;0.50;;;5.30;99.90;;;;;;5008351;27;20200;-51
2023/02/04 12:52:49;;;;;;;1.80;0.60;;;5.30;99.90;;;;;;5026480;27;20223;-53
2023/02/04 12:55:18;;;;;;;1.47;0.70;;;5.30;99.90;;;;;;5006450;27;20806;-51
2023/02/04 12:57:45;;;;;;;0.60;0.53;;;5.30;99.90;;;;;;5019444;28;20621;-53
2023/02/04 13:00:14;;;;;;;0.80;0.70;;;5.40;99.90;;;;;;5010513;28;20208;-50
2023/02/04 13:03:02;;;;;;;1.03;0.53;;;5.40;99.90;;;;;;5011138;27;20579;-50
2023/02/04 13:05:29;;;;;;;3.27;0.50;;;5.50;99.90;;;;;;5003944;27;20212;-51
2023/02/04 13:07:56;;;;;;;2.60;0.80;;;5.50;99.90;;;;;;5013974;28;20200;-52